TDPD

Details ICAO TDPD (DOM)
Name Dominica/Melville Hall
Region Dominica
Timezone America/Dominica (UTC-4.0)
Plans Departing 25
Arriving 49
Stats Elevation 73 ft / 22 m (AMSL)
Location 15.546804° -61.300626°
Runways 1
Magnetic Variation 14.942° W
Sunrise 2017-12-13 10:24:28 UTC / 2017-12-13 06:24:28 Local
Sunset 2017-12-13 21:37:20 UTC / 2017-12-13 17:37:20 Local
Advertisement - Login to hide

Runways

ID Width Length Bearing (true) Bearing (mag) Surface Threshold Offset Overrun Length
09 148 ft / 45 m 5,254 ft / 1,601 m 69.89° 84.83° Asphalt 650 ft / 198 m 0 ft / 0 m
27 148 ft / 45 m 5,254 ft / 1,601 m 249.89° 264.83° Asphalt 0 ft / 0 m 0 ft / 0 m

Map

Weather


0- 5 10 15 20 25 30 35+ Temperature / ° C

Clouds and Precipitation
Forecast for 2017-12-13 18:00 UTC. Updated an hour ago

Ground ~20,000 ft ~40,000 ft Winds

METAR

TDPD 131800Z 09010KT 9999 FEW018 29/22 Q1015

TAF

Not found

Frequencies

Tower 118.90 MHz TWR
Warning: Do not use this data for real-world aviation or navigation. No guarantee of current accuracy is given.